createdAt,value
2023-02-22T00:01:21.926Z,10.99
2023-02-22T00:03:52.132Z,10.84
2023-02-22T00:06:20.835Z,11.08
2023-02-22T00:08:49.489Z,11.12
2023-02-22T00:11:16.762Z,11.12
2023-02-22T00:13:46.217Z,11.01
2023-02-22T00:16:21.640Z,11.09
2023-02-22T00:18:49.033Z,11.14
2023-02-22T00:21:16.956Z,11.35
2023-02-22T00:23:48.475Z,11.24
2023-02-22T00:26:19.757Z,11.29
2023-02-22T00:28:51.781Z,11.36
2023-02-22T00:31:19.788Z,11.44
2023-02-22T00:33:46.648Z,11.35
2023-02-22T00:36:13.898Z,11.15
2023-02-22T00:38:41.396Z,11.12
2023-02-22T00:41:08.350Z,11.23
2023-02-22T00:43:34.936Z,11.27
2023-02-22T00:46:01.637Z,11.19
2023-02-22T00:48:28.504Z,11.08
2023-02-22T00:50:55.397Z,10.96
2023-02-22T00:53:25.752Z,10.77
2023-02-22T00:55:53.112Z,11.01
2023-02-22T00:58:19.851Z,11.14
2023-02-22T01:00:46.813Z,10.86
2023-02-22T01:03:15.161Z,10.83
2023-02-22T01:05:41.850Z,10.88
2023-02-22T01:08:09.965Z,10.82
2023-02-22T01:10:37.706Z,10.58
2023-02-22T01:13:08.542Z,10.28
2023-02-22T01:15:36.701Z,10.36
2023-02-22T01:18:03.412Z,10.41
2023-02-22T01:20:29.878Z,10.30
2023-02-22T01:22:57.880Z,10.44
2023-02-22T01:25:29.892Z,10.65
2023-02-22T01:27:57.567Z,10.85
2023-02-22T01:30:27.187Z,10.80
2023-02-22T01:32:53.997Z,10.86
2023-02-22T01:35:23.965Z,11.00
2023-02-22T01:37:50.692Z,10.96
2023-02-22T01:40:23.806Z,11.00
2023-02-22T01:42:57.960Z,10.97
2023-02-22T01:45:30.688Z,10.93
2023-02-22T01:48:00.268Z,11.05
2023-02-22T01:50:26.984Z,10.67
2023-02-22T01:52:53.454Z,10.85
2023-02-22T01:55:20.040Z,10.92
2023-02-22T01:57:47.210Z,10.59
2023-02-22T02:00:17.263Z,10.42
2023-02-22T02:02:46.193Z,10.76
2023-02-22T02:05:12.896Z,10.57
2023-02-22T02:07:39.682Z,10.66
2023-02-22T02:10:14.438Z,10.52
2023-02-22T02:12:46.915Z,10.64
2023-02-22T02:15:28.956Z,10.59
2023-02-22T02:18:00.775Z,10.47
2023-02-22T02:20:33.003Z,10.44
2023-02-22T02:23:14.542Z,10.48
2023-02-22T02:25:50.029Z,10.25
2023-02-22T02:28:52.006Z,10.33
2023-02-22T02:31:53.437Z,10.36
2023-02-22T02:34:32.010Z,10.47
2023-02-22T02:37:10.627Z,10.45
2023-02-22T02:39:43.794Z,10.31
2023-02-22T02:42:13.053Z,10.15
2023-02-22T02:44:44.616Z,10.29
2023-02-22T02:47:15.243Z,10.50
2023-02-22T02:50:01.992Z,10.56
2023-02-22T02:52:30.337Z,10.59
2023-02-22T02:54:57.016Z,10.50
2023-02-22T02:57:24.763Z,10.49
2023-02-22T02:59:51.598Z,10.43
2023-02-22T03:02:31.450Z,10.23
2023-02-22T03:05:07.429Z,10.19
2023-02-22T03:08:11.414Z,10.07
2023-02-22T03:10:40.847Z,10.34
2023-02-22T03:13:14.454Z,10.44
2023-02-22T03:16:05.225Z,10.20
2023-02-22T03:18:38.387Z,10.18
2023-02-22T03:21:17.121Z,9.83
2023-02-22T03:24:20.394Z,9.90
2023-02-22T03:26:55.466Z,10.33
2023-02-22T03:29:24.174Z,10.42
2023-02-22T03:32:01.449Z,10.35
2023-02-22T03:34:34.104Z,10.20
2023-02-22T03:37:22.036Z,10.15
2023-02-22T03:39:51.565Z,10.47
2023-02-22T03:42:21.721Z,10.35
2023-02-22T03:44:49.035Z,10.46
2023-02-22T03:47:23.401Z,10.36
2023-02-22T03:49:55.919Z,10.41
2023-02-22T03:52:25.800Z,10.44
2023-02-22T03:54:53.761Z,10.38
2023-02-22T03:57:28.510Z,10.32
2023-02-22T03:59:55.438Z,9.94
2023-02-22T04:02:23.787Z,10.00
2023-02-22T04:04:50.321Z,10.15
2023-02-22T04:07:17.132Z,10.03
2023-02-22T04:09:43.646Z,10.03
2023-02-22T04:12:10.119Z,10.06
2023-02-22T04:14:39.594Z,10.21
2023-02-22T04:17:06.074Z,10.03
2023-02-22T04:19:32.547Z,9.76
2023-02-22T04:21:58.981Z,9.36
2023-02-22T04:24:25.512Z,9.15
2023-02-22T04:26:52.143Z,9.35
2023-02-22T04:29:18.692Z,9.28
2023-02-22T04:31:45.217Z,9.32
2023-02-22T04:34:11.706Z,9.76
2023-02-22T04:36:38.212Z,9.52
2023-02-22T04:39:05.369Z,9.83
2023-02-22T04:41:31.838Z,9.61
2023-02-22T04:43:58.312Z,9.94
2023-02-22T04:46:24.828Z,9.83
2023-02-22T04:48:51.315Z,9.98
2023-02-22T04:51:18.140Z,9.97
2023-02-22T04:53:44.731Z,10.26
2023-02-22T04:56:11.378Z,10.21
2023-02-22T04:58:38.001Z,10.18
2023-02-22T05:01:04.568Z,10.17
2023-02-22T05:03:31.791Z,10.25
2023-02-22T05:05:58.233Z,9.80
2023-02-22T05:08:24.727Z,9.90
2023-02-22T05:10:51.181Z,9.86
2023-02-22T05:13:17.693Z,9.80
2023-02-22T05:15:44.187Z,9.86
2023-02-22T05:18:10.666Z,9.95
2023-02-22T05:20:37.171Z,9.46
2023-02-22T05:23:05.180Z,9.52
2023-02-22T05:25:33.242Z,10.03
2023-02-22T05:28:03.316Z,10.15
2023-02-22T05:30:32.885Z,10.23
2023-02-22T05:32:59.914Z,10.44
2023-02-22T05:35:27.408Z,10.16
2023-02-22T05:37:53.939Z,9.99
2023-02-22T05:40:26.293Z,9.75
2023-02-22T05:42:53.957Z,9.83
2023-02-22T05:45:22.273Z,9.93
2023-02-22T05:47:48.714Z,9.63
2023-02-22T05:50:15.749Z,9.89
2023-02-22T05:52:42.335Z,10.15
2023-02-22T05:55:10.240Z,9.94
2023-02-22T05:57:37.084Z,9.73
2023-02-22T06:00:07.490Z,10.06
2023-02-22T06:02:34.565Z,9.71
2023-02-22T06:05:01.026Z,10.05
2023-02-22T06:07:27.503Z,9.85
2023-02-22T06:09:54.004Z,10.18
2023-02-22T06:12:20.558Z,10.29
2023-02-22T06:14:47.105Z,10.44
2023-02-22T06:17:15.375Z,10.33
2023-02-22T06:19:41.964Z,9.58
2023-02-22T06:22:08.644Z,9.65
2023-02-22T06:24:38.604Z,10.22
2023-02-22T06:27:05.053Z,10.22
2023-02-22T06:29:31.550Z,10.26
2023-02-22T06:31:58.034Z,9.99
2023-02-22T06:34:24.530Z,10.15
2023-02-22T06:36:51.121Z,9.88
2023-02-22T06:39:18.969Z,9.79
2023-02-22T06:41:46.739Z,9.89
2023-02-22T06:44:14.559Z,9.98
2023-02-22T06:46:47.328Z,9.88
2023-02-22T06:49:14.160Z,10.18
2023-02-22T06:51:40.802Z,10.20
2023-02-22T06:54:07.284Z,10.19
2023-02-22T06:56:33.720Z,10.37
2023-02-22T06:59:02.816Z,10.43
2023-02-22T07:01:29.505Z,10.22
2023-02-22T07:03:56.094Z,10.34
2023-02-22T07:06:23.099Z,10.16
2023-02-22T07:08:49.914Z,9.59
2023-02-22T07:11:17.708Z,9.74
2023-02-22T07:13:44.385Z,9.64
2023-02-22T07:16:10.886Z,9.43
2023-02-22T07:18:37.384Z,9.53
2023-02-22T07:21:04.166Z,9.58
2023-02-22T07:23:30.698Z,9.77
2023-02-22T07:26:00.547Z,9.99
2023-02-22T07:28:27.038Z,9.90
2023-02-22T07:30:53.529Z,9.85
2023-02-22T07:33:20.053Z,10.03
2023-02-22T07:35:48.328Z,10.22
2023-02-22T07:38:17.065Z,9.98
2023-02-22T07:40:43.902Z,10.36
2023-02-22T07:43:19.714Z,10.44
2023-02-22T07:45:47.147Z,9.95
2023-02-22T07:48:17.100Z,9.76
2023-02-22T07:50:44.004Z,9.79
2023-02-22T07:53:15.789Z,10.02
2023-02-22T07:55:42.317Z,10.42
2023-02-22T07:58:09.487Z,10.27
2023-02-22T08:00:39.286Z,10.41
2023-02-22T08:03:10.765Z,10.05
2023-02-22T08:05:39.314Z,10.08
2023-02-22T08:08:07.862Z,10.42
2023-02-22T08:10:35.461Z,10.29
2023-02-22T08:13:05.661Z,10.73
2023-02-22T08:15:37.387Z,10.64
2023-02-22T08:18:09.137Z,10.38
2023-02-22T08:20:36.907Z,10.56
2023-02-22T08:23:05.603Z,10.41
2023-02-22T08:25:32.210Z,10.27
2023-02-22T08:28:04.600Z,10.01
2023-02-22T08:30:32.961Z,10.41
2023-02-22T08:32:59.651Z,10.46
2023-02-22T08:35:27.540Z,10.74
2023-02-22T08:37:57.348Z,10.35
2023-02-22T08:40:25.415Z,10.50
2023-02-22T08:42:52.241Z,10.56
2023-02-22T08:45:18.776Z,10.84
2023-02-22T08:47:45.325Z,10.29
2023-02-22T08:50:22.555Z,10.15
2023-02-22T08:52:56.842Z,10.47
2023-02-22T08:55:25.080Z,10.57
2023-02-22T08:57:51.763Z,10.81
2023-02-22T09:00:19.529Z,10.86
2023-02-22T09:02:46.070Z,10.11
2023-02-22T09:05:12.593Z,10.80
2023-02-22T09:07:42.483Z,10.19
2023-02-22T09:10:15.538Z,10.15
2023-02-22T09:12:42.528Z,10.51
2023-02-22T09:15:09.836Z,10.33
2023-02-22T09:17:37.455Z,10.74
2023-02-22T09:20:10.107Z,10.75
2023-02-22T09:22:36.616Z,10.76
2023-02-22T09:25:15.912Z,11.42
2023-02-22T09:27:44.102Z,11.32
2023-02-22T09:30:33.473Z,11.73
2023-02-22T09:33:06.192Z,11.21
2023-02-22T09:35:36.153Z,11.13
2023-02-22T09:38:05.572Z,11.25
2023-02-22T09:40:34.042Z,11.77
2023-02-22T09:43:09.620Z,10.81
2023-02-22T09:45:48.253Z,11.08
2023-02-22T09:48:22.171Z,11.05
2023-02-22T09:50:51.546Z,11.32
2023-02-22T09:53:22.206Z,11.05
2023-02-22T09:55:50.917Z,11.26
2023-02-22T09:58:24.439Z,11.55
2023-02-22T10:00:56.282Z,12.02
2023-02-22T10:03:28.423Z,12.30
2023-02-22T10:06:05.926Z,12.53
2023-02-22T10:08:33.548Z,11.46
2023-02-22T10:11:32.532Z,11.33
2023-02-22T10:14:21.886Z,11.50
2023-02-22T10:16:57.437Z,12.05
2023-02-22T10:19:36.081Z,11.32
2023-02-22T10:22:08.709Z,11.44
2023-02-22T10:24:51.370Z,11.53
2023-02-22T10:27:22.187Z,11.99
2023-02-22T10:30:24.468Z,11.69
2023-02-22T10:33:03.512Z,12.06
2023-02-22T10:35:33.431Z,12.07
2023-02-22T10:38:06.970Z,12.52
2023-02-22T10:40:33.561Z,12.39
2023-02-22T10:43:08.502Z,12.18
2023-02-22T10:45:37.044Z,12.40
2023-02-22T10:48:11.685Z,12.02
2023-02-22T10:50:41.463Z,11.87
2023-02-22T10:53:08.792Z,11.92
2023-02-22T10:55:35.617Z,11.87
2023-02-22T10:58:06.832Z,12.22
2023-02-22T11:00:37.395Z,12.23
2023-02-22T11:03:21.885Z,12.57
2023-02-22T11:05:49.470Z,12.32
2023-02-22T11:08:22.088Z,12.68
2023-02-22T11:10:50.442Z,12.49
2023-02-22T11:13:34.536Z,12.40
2023-02-22T11:16:25.834Z,13.03
2023-02-22T11:19:00.762Z,12.60
2023-02-22T11:21:27.341Z,12.21
2023-02-22T11:24:03.275Z,11.74
2023-02-22T11:26:37.518Z,11.63
2023-02-22T11:29:11.079Z,11.58
2023-02-22T11:31:42.774Z,12.03
2023-02-22T11:34:31.642Z,12.15
2023-02-22T11:37:34.795Z,12.42
2023-02-22T11:40:11.999Z,12.60
2023-02-22T11:42:38.493Z,12.55
2023-02-22T11:45:14.422Z,11.70
2023-02-22T11:48:01.609Z,12.18
2023-02-22T11:50:42.238Z,11.89
2023-02-22T11:53:11.675Z,12.29
2023-02-22T11:55:50.523Z,12.66
2023-02-22T11:58:39.674Z,13.66
2023-02-22T12:01:20.962Z,12.91
2023-02-22T12:04:15.848Z,12.87
2023-02-22T12:07:10.160Z,13.04
2023-02-22T12:09:45.661Z,12.84
2023-02-22T12:12:31.932Z,12.73
2023-02-22T12:15:05.978Z,12.98
2023-02-22T12:17:43.690Z,12.67
2023-02-22T12:20:22.366Z,12.75
2023-02-22T12:22:56.887Z,12.89
2023-02-22T12:25:29.522Z,12.31
2023-02-22T12:27:59.476Z,12.75
2023-02-22T12:30:36.533Z,12.71
2023-02-22T12:33:06.586Z,12.13
2023-02-22T12:35:35.394Z,11.91
2023-02-22T12:38:09.510Z,12.15
2023-02-22T12:40:57.174Z,12.70
2023-02-22T12:43:36.749Z,12.57
2023-02-22T12:46:07.373Z,13.14
2023-02-22T12:49:14.714Z,13.26
2023-02-22T12:52:03.046Z,13.16
2023-02-22T12:54:41.922Z,12.88
2023-02-22T12:57:11.325Z,12.34
2023-02-22T12:59:50.598Z,12.79
2023-02-22T13:02:30.592Z,12.12
2023-02-22T13:04:57.310Z,12.63
2023-02-22T13:07:46.056Z,12.63
2023-02-22T13:10:27.671Z,12.43
2023-02-22T13:13:06.965Z,12.10
2023-02-22T13:15:58.488Z,12.80
2023-02-22T13:18:57.430Z,13.12
2023-02-22T13:21:38.039Z,12.54
2023-02-22T13:24:07.431Z,12.90
2023-02-22T13:26:40.091Z,12.75
2023-02-22T13:29:39.955Z,13.02
2023-02-22T13:32:15.772Z,12.91
2023-02-22T13:34:50.096Z,12.98
2023-02-22T13:37:38.181Z,12.90
2023-02-22T13:40:35.883Z,12.95
2023-02-22T13:43:23.756Z,12.61
2023-02-22T13:46:05.258Z,13.16
2023-02-22T13:48:50.419Z,13.58
2023-02-22T13:51:50.710Z,13.47
2023-02-22T13:54:25.180Z,13.51
2023-02-22T13:56:52.801Z,12.77
2023-02-22T13:59:27.130Z,13.56
2023-02-22T14:01:55.039Z,13.45
2023-02-22T14:04:27.596Z,13.02
2023-02-22T14:07:01.554Z,13.27
2023-02-22T14:10:03.823Z,12.33
2023-02-22T14:12:30.259Z,12.40
2023-02-22T14:15:30.857Z,12.36
2023-02-22T14:17:58.932Z,12.42
2023-02-22T14:20:38.262Z,12.37
2023-02-22T14:23:23.446Z,12.87
2023-02-22T14:25:50.755Z,12.40
2023-02-22T14:28:38.284Z,12.71
2023-02-22T14:31:17.413Z,13.11
2023-02-22T14:34:13.015Z,12.35
2023-02-22T14:37:04.511Z,12.52
2023-02-22T14:39:51.467Z,12.86
2023-02-22T14:42:25.538Z,13.15
2023-02-22T14:45:12.131Z,13.52
2023-02-22T14:47:49.494Z,13.29
2023-02-22T14:50:27.298Z,12.66
2023-02-22T14:53:06.936Z,12.29
2023-02-22T14:55:41.409Z,12.59
2023-02-22T14:58:12.471Z,12.93
2023-02-22T15:00:43.405Z,13.18
2023-02-22T15:03:22.027Z,12.82
2023-02-22T15:05:49.799Z,13.19
2023-02-22T15:08:18.740Z,12.99
2023-02-22T15:10:51.387Z,13.00
2023-02-22T15:13:27.053Z,12.67
2023-02-22T15:16:00.582Z,12.59
2023-02-22T15:18:40.015Z,12.54
2023-02-22T15:21:18.271Z,12.45
2023-02-22T15:23:50.656Z,12.34
2023-02-22T15:26:40.877Z,12.91
2023-02-22T15:29:16.201Z,12.39
2023-02-22T15:31:48.314Z,12.83
2023-02-22T15:34:15.070Z,13.05
2023-02-22T15:36:43.177Z,13.13
2023-02-22T15:39:43.822Z,12.57
2023-02-22T15:42:23.040Z,12.76
2023-02-22T15:44:54.656Z,12.62
2023-02-22T15:47:27.555Z,12.56
2023-02-22T15:50:23.622Z,12.14
2023-02-22T15:52:57.931Z,12.20
2023-02-22T15:55:30.319Z,12.61
2023-02-22T15:58:23.731Z,12.62
2023-02-22T16:01:14.083Z,12.19
2023-02-22T16:03:50.580Z,12.58
2023-02-22T16:06:39.447Z,12.22
2023-02-22T16:09:13.791Z,11.87
2023-02-22T16:11:45.418Z,12.01
2023-02-22T16:14:31.320Z,12.24
2023-02-22T16:17:30.982Z,12.40
2023-02-22T16:20:18.692Z,12.78
2023-02-22T16:22:49.306Z,12.65
2023-02-22T16:25:27.746Z,13.20
2023-02-22T16:28:06.243Z,13.02
2023-02-22T16:30:35.358Z,12.81
2023-02-22T16:33:13.818Z,12.38
2023-02-22T16:35:40.963Z,12.68
2023-02-22T16:38:16.667Z,12.36
2023-02-22T16:40:53.835Z,12.75
2023-02-22T16:43:23.019Z,12.51
2023-02-22T16:45:49.706Z,12.35
2023-02-22T16:48:19.882Z,12.32
2023-02-22T16:50:51.511Z,12.58
2023-02-22T16:53:20.343Z,11.97
2023-02-22T16:55:48.162Z,12.15
2023-02-22T16:58:15.663Z,12.21
2023-02-22T17:00:42.346Z,12.24
2023-02-22T17:03:14.935Z,12.13
2023-02-22T17:05:41.542Z,12.37
2023-02-22T17:08:08.029Z,11.95
2023-02-22T17:10:34.941Z,12.18
2023-02-22T17:13:12.720Z,12.36
2023-02-22T17:15:46.762Z,12.38
2023-02-22T17:18:22.569Z,12.14
2023-02-22T17:20:52.867Z,12.09
2023-02-22T17:23:20.042Z,12.17
2023-02-22T17:25:53.448Z,12.55
2023-02-22T17:28:20.976Z,12.57
2023-02-22T17:30:51.488Z,12.43
2023-02-22T17:33:21.480Z,11.91
2023-02-22T17:35:48.162Z,12.21
2023-02-22T17:38:18.608Z,12.38
2023-02-22T17:40:48.269Z,11.89
2023-02-22T17:43:15.710Z,12.18
2023-02-22T17:45:42.402Z,11.95
2023-02-22T17:48:09.658Z,11.85
2023-02-22T17:50:40.779Z,11.88
2023-02-22T17:53:10.995Z,12.30
2023-02-22T17:55:39.575Z,12.13
2023-02-22T17:58:06.914Z,12.35
2023-02-22T18:00:36.128Z,12.36
2023-02-22T18:03:05.721Z,11.97
2023-02-22T18:05:33.548Z,11.96
2023-02-22T18:08:00.266Z,11.99
2023-02-22T18:10:27.123Z,12.13
2023-02-22T18:12:53.807Z,12.07
2023-02-22T18:15:21.400Z,12.19
2023-02-22T18:17:49.041Z,11.97
2023-02-22T18:20:20.608Z,11.90
2023-02-22T18:22:47.467Z,11.52
2023-02-22T18:25:15.693Z,11.62
2023-02-22T18:27:45.563Z,11.74
2023-02-22T18:30:12.580Z,11.85
2023-02-22T18:32:39.682Z,11.69
2023-02-22T18:35:06.618Z,11.90
2023-02-22T18:37:33.910Z,11.20
2023-02-22T18:40:01.318Z,11.70
2023-02-22T18:42:28.420Z,11.88
2023-02-22T18:45:00.135Z,11.61
2023-02-22T18:47:26.799Z,11.75
2023-02-22T18:49:53.506Z,12.19
2023-02-22T18:52:19.942Z,11.51
2023-02-22T18:54:47.253Z,11.60
2023-02-22T18:57:13.768Z,11.50
2023-02-22T18:59:41.244Z,11.59
2023-02-22T19:02:13.500Z,11.45
2023-02-22T19:04:40.303Z,11.37
2023-02-22T19:07:07.068Z,11.62
2023-02-22T19:09:33.723Z,11.44
2023-02-22T19:12:00.288Z,11.69
2023-02-22T19:14:27.214Z,11.74
2023-02-22T19:16:56.549Z,11.51
2023-02-22T19:19:26.063Z,11.14
2023-02-22T19:21:53.019Z,11.72
2023-02-22T19:24:19.556Z,11.43
2023-02-22T19:26:50.683Z,11.23
2023-02-22T19:29:23.859Z,11.76
2023-02-22T19:31:51.723Z,11.19
2023-02-22T19:34:21.799Z,11.64
2023-02-22T19:36:48.851Z,11.37
2023-02-22T19:39:17.864Z,11.42
2023-02-22T19:41:44.504Z,11.29
2023-02-22T19:44:12.257Z,11.39
2023-02-22T19:46:39.551Z,11.50
2023-02-22T19:49:07.216Z,11.61
2023-02-22T19:51:33.776Z,11.40
2023-02-22T19:54:05.903Z,11.48
2023-02-22T19:56:34.917Z,11.39
2023-02-22T19:59:09.229Z,11.49
2023-02-22T20:01:36.778Z,11.61
2023-02-22T20:04:09.281Z,11.44
2023-02-22T20:06:41.613Z,11.14
2023-02-22T20:09:10.797Z,10.88
2023-02-22T20:11:37.909Z,10.71
2023-02-22T20:14:06.444Z,10.67
2023-02-22T20:16:34.453Z,10.93
2023-02-22T20:19:01.555Z,11.13
2023-02-22T20:21:31.377Z,11.24
2023-02-22T20:24:07.584Z,11.23
2023-02-22T20:26:36.527Z,11.05
2023-02-22T20:29:04.484Z,11.10
2023-02-22T20:31:31.780Z,11.09
2023-02-22T20:34:00.541Z,11.22
2023-02-22T20:36:29.382Z,11.02
2023-02-22T20:38:58.250Z,11.26
2023-02-22T20:41:30.505Z,11.57
2023-02-22T20:43:58.015Z,10.93
2023-02-22T20:46:25.611Z,10.96
2023-02-22T20:48:56.627Z,10.53
2023-02-22T20:51:23.659Z,11.24
2023-02-22T20:53:50.278Z,11.54
2023-02-22T20:56:24.244Z,11.34
2023-02-22T20:58:51.246Z,11.15
2023-02-22T21:01:19.903Z,11.32
2023-02-22T21:03:47.109Z,11.33
2023-02-22T21:06:15.624Z,10.86
2023-02-22T21:08:50.191Z,11.23
2023-02-22T21:11:18.278Z,11.16
2023-02-22T21:13:45.044Z,10.94
2023-02-22T21:16:24.286Z,10.85
2023-02-22T21:18:52.139Z,10.81
2023-02-22T21:21:19.270Z,10.83
2023-02-22T21:23:52.476Z,11.05
2023-02-22T21:26:23.604Z,11.18
2023-02-22T21:28:51.840Z,11.76
2023-02-22T21:31:21.125Z,11.59
2023-02-22T21:33:53.009Z,10.83
2023-02-22T21:36:20.532Z,10.70
2023-02-22T21:38:53.225Z,11.20
2023-02-22T21:41:21.208Z,11.60
2023-02-22T21:43:51.783Z,10.89
2023-02-22T21:46:18.464Z,10.76
2023-02-22T21:48:48.883Z,10.59
2023-02-22T21:51:25.722Z,10.63
2023-02-22T21:53:55.404Z,11.31
2023-02-22T21:56:24.851Z,11.22
2023-02-22T21:59:03.717Z,11.09
2023-02-22T22:01:33.623Z,11.14
2023-02-22T22:04:05.035Z,10.70
2023-02-22T22:06:33.370Z,10.83
2023-02-22T22:09:01.475Z,10.60
2023-02-22T22:11:30.890Z,11.27
2023-02-22T22:13:58.908Z,11.58
2023-02-22T22:16:29.973Z,11.29
2023-02-22T22:18:57.273Z,11.32
2023-02-22T22:21:24.715Z,11.04
2023-02-22T22:23:54.447Z,11.11
2023-02-22T22:26:21.082Z,11.12
2023-02-22T22:28:52.120Z,10.75
2023-02-22T22:31:21.241Z,10.61
2023-02-22T22:33:48.785Z,10.47
2023-02-22T22:36:17.566Z,10.52
2023-02-22T22:38:47.199Z,10.60
2023-02-22T22:41:15.771Z,11.30
2023-02-22T22:43:46.176Z,10.90
2023-02-22T22:46:15.361Z,11.22
2023-02-22T22:48:42.569Z,11.30
2023-02-22T22:51:15.433Z,11.26
2023-02-22T22:53:44.435Z,11.42
2023-02-22T22:56:18.031Z,10.92
2023-02-22T22:58:51.101Z,10.82
2023-02-22T23:01:26.745Z,11.21
2023-02-22T23:04:01.608Z,11.27
2023-02-22T23:06:39.153Z,11.37
2023-02-22T23:09:26.656Z,11.29
2023-02-22T23:11:55.402Z,11.43
2023-02-22T23:14:32.431Z,11.33
2023-02-22T23:17:03.686Z,11.45
2023-02-22T23:19:32.449Z,10.91
2023-02-22T23:21:59.247Z,10.95
2023-02-22T23:24:29.190Z,10.87
2023-02-22T23:27:00.002Z,11.15
2023-02-22T23:29:27.218Z,10.71
2023-02-22T23:31:54.522Z,11.08
2023-02-22T23:34:23.115Z,11.18
2023-02-22T23:36:53.724Z,10.95
2023-02-22T23:39:21.521Z,10.85
2023-02-22T23:41:55.816Z,11.02
2023-02-22T23:44:22.814Z,11.11
2023-02-22T23:46:55.102Z,10.90
2023-02-22T23:49:23.660Z,10.88
2023-02-22T23:51:50.215Z,10.52
2023-02-22T23:54:19.498Z,10.93
2023-02-22T23:56:58.592Z,10.96
2023-02-22T23:59:26.280Z,10.85
